Terminal Aerodrome Forecast
Issued by NWS

Home | Current Version | Previous Version | Text Only | Print | Product List | Glossary On
Versions: 1 2 3 4 5 6 7 8 9 10 11 12 13 14 15 16 17
000
FTUS41 KBGM 281100
TAFITH
TAF
KITH 281120Z 2812/2912 28007KT P6SM SCT008 OVC015
      TEMPO 2812/2816 3SM -SHRA BR OVC008
     FM281600 32012G18KT 5SM -SHRA BR SCT008 OVC012
     FM290000 30008KT P6SM -SHRA OVC025
     FM290600 29005KT P6SM BKN035=

USA.gov is the U.S. government's official web portal to all federal, state and local government web resources and services.